South Milwaukee, WI

7:17 AM CST on February 19, 2019 (GMT -0600)
South Milwaukee | | Change Station
Active Advisory: Winter Weather Advisory

Elev 673 ft 42.91 °N, 87.85 °W | Updated 1 minute ago

Partly Cloudy
Partly Cloudy
13.6 °F
Feels Like 14 °F
N
0
Wind Variable Wind from SE
Gusts 0.0 mph

Today
High -- | Low -- °F
--% Chance of Precip.
Yesterday
High -- | Low -- °F
Precip. -- in
Pressure 30.66 in
Visibility 9.0 miles
Clouds Few 20000 ft
Mostly Cloudy 25000 ft
Windchill 14 °F
Dew Point 7 °F
Humidity 74%
Rainfall 0.00 in
Snow Depth Not available.
6:43 AM 5:27 PM
Full, 100% visible
METAR KMKE 191252Z 00000KT 9SM FEW200 BKN250 M15/M18 A3061 RMK AO2 SLP382 T11501183
Pressure 30.66 in
Visibility 9.0 miles
Clouds Few 20000 ft
Mostly Cloudy 25000 ft
Windchill 14 °F
Dew Point 7 °F
Humidity 74%
Rainfall 0.00 in
Snow Depth Not available.
6:43 AM 5:27 PM
Full, 100% visible
METAR KMKE 191252Z 00000KT 9SM FEW200 BKN250 M15/M18 A3061 RMK AO2 SLP382 T11501183

Get Your Daily Forecast Email!

Thanks for signing up!

Be on the lookout for a verification email in your inbox.

You'll start receiving severe weather alerts in your inbox..

×

10-Day Weather Forecast

Almanac

Astronomy

Feb. 19, 2019 Rise Set
Actual Time
Civil Twilight
Nautical Twilight
Astronomical Twilight
Moon
Length of Visible Light
Length of Day
Tomorrow will be .
, % of the Moon is Illuminated

Today's Extremes

State Highs State Lows

Community

WunderPhotos

Category 6

Welcome to Category 6. This is the collective home for Weather Underground's featured writeups by Dr. Jeff Masters (right), Bob Henson (left), Chris Burt, and other regular contributors.

Nearby

Air Quality

  Air Quality AQ Index Pollutant
Not available.

Snow Depth

Station Depth Elevation

Earthquake Activity

City Distance Mag. Time & Date
Minimum magnitude displayed is 2.5.

Coastal Water Temperatures

Place Temperature

Stations

Nearby Weather Stations

Station Location Temp. Windchill Dew Point Humidity Wind Precip. Elev Updated Type
                   

Watches & Warnings

Winter Weather Advisory
Issued: 3:48 AM CST Feb. 19, 2019 – National Weather Service

... Winter Weather Advisory in effect from 3 am to 3 PM CST
Wednesday...

* what... snow and mixed precipitation expected. Total snow
accumulations of 1 to 3 inches and ice accumulations up to a
tenth of an inch expected.

* Where... Milwaukee, Racine and Kenosha counties.

* When... from 3 am to 3 PM CST Wednesday.

* Additional details... plan on slippery Road conditions. The
hazardous conditions will impact the morning commute.

Precautionary/preparedness actions...

A Winter Weather Advisory means that periods of snow, sleet or
freezing rain will cause travel difficulties. Expect slippery
roads and limited visibilities, and use caution while driving.

The latest Road conditions for the state you are calling from can
be obtained by calling 5 1 1.